Aérodrome :
LOGIN :

S'inscrire | Disclaimer

   EN    FR    IT 

 










Légende :    VFR   VFR Marginal   IFR   IFR Intensif   IFR Très Intensif
Visi : 
Plafond : 
>= 8 km
>= 3000ft
5 à 8 km
1000 à 3000 ft
1500m à 5 km
500 à 1000 ft
800 à 1500m
200 à 500 ft
< 800m
< 200 ft
Symboles :   Orages  Brouillard  Fortes neiges  Fortes précipitations  Vent > 20 kt
SIGMETs :   Divers  Orages  Givrage  Turbulence  Onde Orograph.  Cendres Volcan.






- Altitude de l'aérodrome : 1860 ft
- Code IATA : GRX


LEGR - Granada

DERNIER METAR :
  • 250600Z 14003KT 090V230 9999 -RA SCT045 BKN075 OVC090 09/06 Q1017

METARs EXPIRÉS :
  • 250530Z 11005KT 9999 FEW050CB SCT070 OVC090 09/06 Q1016
  • 250500Z 14006KT 050V180 9999 -RA FEW030 SCT050 BKN070 09/07 Q1016
  • 250430Z AUTO 36005KT 330V030 9999 BKN050 BKN075 08/07 Q1017
  • 250400Z AUTO VRB02KT 9999 SCT066 BKN087 BKN100 08/07 Q1017
  • 250330Z AUTO VRB02KT 9999 FEW047 BKN067 08/07 Q1017

TAF TAF LEGR
Valide du 25 à 03h jusqu'au 26 à 03h UTC


250200Z 2503/2603 19009KT 9999 FEW030 SCT040 TX13/2515Z TN02/2507Z
PROB40
TEMPO 2503/2515 3000 SHRA SCT030CB
PROB30
TEMPO 2503/2515 4000 TSRA SCT030CB



MET'MAP, la Météo Aéronautique d'un coup d'oeil ! - Copyright ORBIFLY Décembre 2007 - Disclaimer

ORBIFLY MET'MAP TEAM :

Programmation & Développement : Alexandra Zaïnal
Sur une idée originale de : Baudouin d'Aumeries
Assistance à la programmation : Marc-Olivier Méhu
Soutien technique & logistique : Manuel Goepfert

Contact : metmap@orbifly.com




SOURCES & CREDITS :

   NOAA